Time;durP1;ratioP1;P1;durP2;ratioP2;P2;SDS_P1;SDS_P2;PMS_P1;PMS_P2;Temp;Humidity;BMP_temperature;BMP_pressure;BME280_temperature;BME280_humidity;BME280_pressure;Samples;Min_cycle;Max_cycle;Signal;HPM_P1;HPM_P2
2024/04/09 00:02:13;;;;;;;14.02;2.20;;;;;;;18.83;33.12;95656.03;5422101;26;20010;-68
2024/04/09 00:04:39;;;;;;;10.70;1.90;;;;;;;18.81;33.09;95659.25;5426271;26;20442;-69
2024/04/09 00:07:05;;;;;;;9.13;2.10;;;;;;;18.94;32.34;95652.91;5403730;26;20072;-68
2024/04/09 00:09:30;;;;;;;10.65;1.83;;;;;;;19.06;32.55;95650.09;5400557;26;20767;-70
2024/04/09 00:11:58;;;;;;;9.60;2.33;;;;;;;18.98;32.80;95650.78;5432354;26;20462;-69
2024/04/09 00:14:24;;;;;;;9.27;2.08;;;;;;;19.00;32.61;95657.47;5409560;26;20000;-68
2024/04/09 00:16:53;;;;;;;10.90;2.10;;;;;;;18.91;33.58;95651.81;5402100;26;20058;-67
2024/04/09 00:19:23;;;;;;;10.80;2.20;;;;;;;18.81;33.49;95650.13;5389806;26;20000;-69
2024/04/09 00:21:52;;;;;;;7.03;2.00;;;;;;;18.65;33.80;95648.28;5395786;26;20273;-68
2024/04/09 00:24:17;;;;;;;10.77;2.70;;;;;;;18.53;33.91;95652.63;5400932;26;20076;-68
2024/04/09 00:26:44;;;;;;;7.38;2.30;;;;;;;18.52;34.06;95648.28;5396119;26;20336;-67
2024/04/09 00:29:10;;;;;;;11.77;2.13;;;;;;;18.41;34.32;95647.84;5390654;26;20779;-67
2024/04/09 00:31:36;;;;;;;8.40;2.35;;;;;;;18.23;36.51;95626.25;5396323;26;19999;-67
2024/04/09 00:34:05;;;;;;;18.40;2.08;;;;;;;18.04;35.44;95622.44;5419253;26;19995;-67
2024/04/09 00:36:33;;;;;;;10.48;2.50;;;;;;;17.98;35.49;95613.16;5435440;26;20003;-71
2024/04/09 00:39:00;;;;;;;12.48;2.08;;;;;;;18.06;36.95;95625.53;5405933;26;20011;-69
2024/04/09 00:41:25;;;;;;;14.02;2.78;;;;;;;17.86;36.65;95611.91;5409952;26;19999;-69
2024/04/09 00:43:51;;;;;;;12.68;1.88;;;;;;;18.20;34.23;95629.88;5413173;26;20011;-69
2024/04/09 00:46:18;;;;;;;9.52;2.33;;;;;;;18.18;34.55;95624.78;5407918;26;19999;-69
2024/04/09 00:48:44;;;;;;;11.20;2.65;;;;;;;18.38;33.24;95627.31;5387920;26;20007;-69
2024/04/09 00:51:12;;;;;;;16.80;2.60;;;;;;;18.69;33.09;95624.75;5405559;26;19999;-69
2024/04/09 00:53:39;;;;;;;10.23;2.20;;;;;;;18.48;33.74;95631.00;5397046;26;20018;-69
2024/04/09 00:56:06;;;;;;;13.45;2.53;;;;;;;18.29;38.63;95627.22;5371008;26;20013;-70
2024/04/09 00:58:32;;;;;;;5.30;1.77;;;;;;;18.05;40.30;95626.78;5412488;26;19999;-68
2024/04/09 01:00:59;;;;;;;13.90;2.00;;;;;;;17.79;40.51;95632.25;5423242;26;19999;-68
2024/04/09 01:03:26;;;;;;;10.27;2.30;;;;;;;17.52;40.20;95624.31;5422362;26;19995;-69
2024/04/09 01:05:52;;;;;;;6.57;2.17;;;;;;;17.23;41.76;95618.78;5405742;26;20014;-68
2024/04/09 01:08:17;;;;;;;9.05;1.85;;;;;;;17.04;42.79;95612.19;5395772;26;20031;-68
2024/04/09 01:10:43;;;;;;;15.40;2.42;;;;;;;16.88;41.93;95616.53;5395455;26;20015;-68
2024/04/09 01:13:08;;;;;;;13.30;2.33;;;;;;;16.89;38.92;95617.31;5388128;26;20000;-68
2024/04/09 01:15:34;;;;;;;12.98;2.75;;;;;;;16.91;39.76;95614.91;5394317;26;19996;-69
2024/04/09 01:17:59;;;;;;;13.93;2.10;;;;;;;16.92;42.76;95619.22;5395431;26;20007;-69
2024/04/09 01:20:25;;;;;;;11.32;1.88;;;;;;;16.85;44.00;95624.91;5387739;26;19996;-69
2024/04/09 01:22:50;;;;;;;7.47;2.10;;;;;;;16.75;45.01;95623.97;5383617;26;20027;-68
2024/04/09 01:25:16;;;;;;;11.50;2.05;;;;;;;16.62;46.60;95621.13;5361117;26;20004;-69
2024/04/09 01:27:41;;;;;;;10.13;1.70;;;;;;;16.57;47.98;95614.13;5402443;26;20054;-68
2024/04/09 01:30:08;;;;;;;16.70;2.30;;;;;;;16.52;47.55;95619.38;5410596;26;20052;-69
2024/04/09 01:32:34;;;;;;;15.35;2.92;;;;;;;16.53;46.09;95631.97;5400190;26;20014;-68
2024/04/09 01:35:00;;;;;;;10.40;2.25;;;;;;;16.62;44.11;95629.41;5404331;26;20000;-69
2024/04/09 01:37:28;;;;;;;10.15;2.38;;;;;;;16.63;45.00;95626.19;5400885;26;20011;-69
2024/04/09 01:39:53;;;;;;;19.55;2.45;;;;;;;16.61;47.70;95620.31;5416877;26;20010;-68
2024/04/09 01:42:19;;;;;;;10.68;2.50;;;;;;;16.60;46.67;95629.03;5375603;26;19999;-68
2024/04/09 01:44:44;;;;;;;14.98;3.17;;;;;;;16.57;45.24;95641.75;5409005;26;20014;-68
2024/04/09 01:47:10;;;;;;;15.18;2.35;;;;;;;16.75;47.00;95643.31;5396541;26;19999;-68
2024/04/09 01:49:36;;;;;;;10.05;2.08;;;;;;;16.69;47.70;95636.75;5401151;26;20000;-68
2024/04/09 01:52:02;;;;;;;10.65;2.20;;;;;;;16.62;50.86;95626.66;5412553;26;20428;-69
2024/04/09 01:54:28;;;;;;;8.38;1.92;;;;;;;16.54;50.53;95628.78;5410790;26;20014;-68
2024/04/09 01:56:53;;;;;;;14.38;3.00;;;;;;;16.47;49.75;95622.66;5395236;26;19999;-69
2024/04/09 01:59:18;;;;;;;12.35;2.67;;;;;;;16.39;51.79;95628.38;5404847;26;20053;-68
2024/04/09 02:01:44;;;;;;;14.35;3.33;;;;;;;16.43;51.02;95628.28;5396602;26;19995;-68
2024/04/09 02:04:11;;;;;;;7.78;2.60;;;;;;;16.43;53.67;95622.75;5388546;26;20435;-69
2024/04/09 02:06:37;;;;;;;11.75;2.70;;;;;;;16.34;53.31;95633.63;5413514;26;20075;-69
2024/04/09 02:09:03;;;;;;;9.98;2.10;;;;;;;16.16;57.49;95629.28;5398320;26;20722;-70
2024/04/09 02:11:30;;;;;;;12.63;3.05;;;;;;;16.15;56.85;95630.50;5343073;26;20760;-69
2024/04/09 02:13:55;;;;;;;11.88;2.47;;;;;;;16.04;58.59;95629.94;5387412;26;20008;-69
2024/04/09 02:16:22;;;;;;;6.90;2.40;;;;;;;15.82;60.98;95632.41;5386402;26;20995;-69
2024/04/09 02:18:47;;;;;;;17.85;2.33;;;;;;;15.78;62.63;95624.19;5363627;26;20087;-69
2024/04/09 02:21:15;;;;;;;12.68;2.70;;;;;;;15.72;59.35;95625.09;5413500;26;20494;-69
2024/04/09 02:23:41;;;;;;;17.67;2.85;;;;;;;15.63;61.87;95631.22;5414405;26;20011;-69
2024/04/09 02:26:07;;;;;;;10.68;2.13;;;;;;;15.25;65.80;95637.84;5405781;26;20086;-68
2024/04/09 02:28:33;;;;;;;11.48;2.47;;;;;;;15.12;66.50;95634.16;5409831;26;20007;-68
2024/04/09 02:30:59;;;;;;;18.02;2.72;;;;;;;15.15;68.48;95640.81;5427654;26;20338;-69
2024/04/09 02:33:25;;;;;;;14.32;2.50;;;;;;;15.13;72.36;95634.94;5392581;26;20010;-67
2024/04/09 02:35:58;;;;;;;12.90;2.75;;;;;;;14.96;73.81;95637.56;5398160;26;20000;-68
2024/04/09 02:38:25;;;;;;;14.15;3.28;;;;;;;14.83;75.05;95639.41;5390188;26;20006;-67
2024/04/09 02:40:50;;;;;;;16.70;2.85;;;;;;;14.65;75.90;95661.75;5405412;26;20006;-68
2024/04/09 02:43:16;;;;;;;15.48;3.08;;;;;;;14.54;76.58;95661.88;5424989;26;19995;-69
2024/04/09 02:45:42;;;;;;;14.50;2.40;;;;;;;14.39;79.13;95658.59;5397719;26;20720;-67
2024/04/09 02:48:07;;;;;;;13.65;2.85;;;;;;;14.45;81.62;95662.41;5392150;26;19999;-68
2024/04/09 02:50:33;;;;;;;7.75;2.85;;;;;;;14.36;83.47;95664.16;5412134;26;20340;-68
2024/04/09 02:52:58;;;;;;;10.63;2.25;;;;;;;14.39;85.24;95658.59;5426202;26;20438;-68
2024/04/09 02:55:24;;;;;;;10.38;2.75;;;;;;;14.40;84.74;95660.13;5375755;26;19999;-69
2024/04/09 02:57:49;;;;;;;12.38;2.53;;;;;;;14.23;86.61;95672.97;5418766;26;20067;-69
2024/04/09 03:00:19;;;;;;;8.00;2.33;;;;;;;13.91;90.91;95674.19;5380045;26;20002;-68
2024/04/09 03:02:52;;;;;;;11.20;2.38;;;;;;;13.73;93.19;95685.44;5398974;26;20009;-70
2024/04/09 03:05:27;;;;;;;16.00;2.97;;;;;;;13.63;93.02;95674.53;5404861;26;20010;-68
2024/04/09 03:07:53;;;;;;;11.43;3.08;;;;;;;13.48;93.21;95680.22;5398920;26;20003;-68
2024/04/09 03:10:18;;;;;;;17.70;3.20;;;;;;;13.33;94.51;95695.34;5388328;26;20806;-68
2024/04/09 03:12:43;;;;;;;13.25;3.10;;;;;;;13.22;96.15;95702.84;5365358;26;19999;-68
2024/04/09 03:15:09;;;;;;;11.20;3.33;;;;;;;13.16;97.46;95717.06;5389070;26;20012;-68
2024/04/09 03:17:35;;;;;;;21.20;3.58;;;;;;;12.93;99.04;95714.16;5398600;26;20441;-68
2024/04/09 03:20:01;;;;;;;14.05;3.80;;;;;;;12.55;99.43;95714.03;5431330;26;20011;-68
2024/04/09 03:22:26;;;;;;;14.40;3.10;;;;;;;12.46;99.27;95709.00;5413499;26;19999;-68
2024/04/09 03:24:51;;;;;;;19.20;3.30;;;;;;;12.06;100.00;95705.72;5410216;26;20076;-68
2024/04/09 03:27:17;;;;;;;17.20;3.63;;;;;;;11.58;100.00;95692.59;5417306;26;20071;-69
2024/04/09 03:29:42;;;;;;;10.45;2.80;;;;;;;11.66;100.00;95703.13;5396805;26;20007;-69
2024/04/09 03:32:08;;;;;;;16.63;3.58;;;;;;;12.11;100.00;95716.28;5404685;26;20000;-69
2024/04/09 03:34:34;;;;;;;15.73;3.00;;;;;;;12.32;100.00;95714.59;5399714;26;20000;-69
2024/04/09 03:37:00;;;;;;;13.27;3.80;;;;;;;12.41;99.88;95714.94;5419357;26;20443;-69
2024/04/09 03:39:25;;;;;;;15.98;3.53;;;;;;;12.55;100.00;95714.03;5364540;26;20334;-69
2024/04/09 03:41:51;;;;;;;18.90;3.40;;;;;;;12.60;100.00;95717.16;5433944;26;20071;-68
2024/04/09 03:44:16;;;;;;;15.43;4.15;;;;;;;12.57;100.00;95715.19;5397100;26;20000;-70
2024/04/09 03:46:42;;;;;;;19.15;3.97;;;;;;;12.56;99.59;95710.88;5380744;26;20013;-69
2024/04/09 03:49:07;;;;;;;27.05;4.07;;;;;;;12.58;99.40;95707.75;5401865;26;20005;-70
2024/04/09 03:51:33;;;;;;;13.90;3.55;;;;;;;12.61;99.83;95731.66;5417317;26;20083;-69
2024/04/09 03:53:58;;;;;;;18.52;3.72;;;;;;;12.66;97.77;95735.94;5414206;26;19999;-69
2024/04/09 03:56:24;;;;;;;11.88;2.90;;;;;;;12.80;96.22;95739.38;5409873;26;20011;-69
2024/04/09 03:58:49;;;;;;;14.88;3.33;;;;;;;12.80;95.31;95741.31;5396254;26;19999;-69
2024/04/09 04:01:16;;;;;;;9.20;2.88;;;;;;;12.72;95.35;95737.84;5414933;26;20635;-70
2024/04/09 04:03:45;;;;;;;20.08;3.83;;;;;;;12.11;100.00;95742.94;5429239;26;19995;-69
2024/04/09 04:06:10;;;;;;;17.38;4.68;;;;;;;11.55;100.00;95737.25;5404447;26;19999;-68
2024/04/09 04:08:38;;;;;;;19.45;3.83;;;;;;;11.60;100.00;95742.34;5426867;26;19999;-69
2024/04/09 04:11:05;;;;;;;13.02;2.85;;;;;;;11.59;100.00;95749.00;5400728;26;20014;-65
2024/04/09 04:13:33;;;;;;;12.43;3.22;;;;;;;11.54;100.00;95752.94;5401266;26;20011;-66
2024/04/09 04:16:04;;;;;;;14.05;3.30;;;;;;;11.55;100.00;95756.44;5407904;26;20003;-66
2024/04/09 04:18:41;;;;;;;26.30;4.10;;;;;;;11.82;100.00;95767.72;5412675;26;20072;-66
2024/04/09 04:21:08;;;;;;;18.15;3.00;;;;;;;12.04;97.91;95779.44;5401313;26;20011;-66
2024/04/09 04:23:34;;;;;;;15.45;2.80;;;;;;;12.07;98.11;95775.13;5446875;26;20035;-68
2024/04/09 04:26:02;;;;;;;15.77;3.72;;;;;;;12.06;95.74;95788.03;5437638;26;20052;-67
2024/04/09 04:28:31;;;;;;;13.32;3.20;;;;;;;12.11;98.23;95803.31;5426303;26;20004;-65
2024/04/09 04:30:57;;;;;;;14.35;3.40;;;;;;;12.59;89.89;95811.72;5413898;26;20011;-66
2024/04/09 04:33:23;;;;;;;17.92;3.40;;;;;;;12.60;87.78;95823.47;5408805;26;20006;-65
2024/04/09 04:35:48;;;;;;;15.00;4.22;;;;;;;12.72;87.67;95827.75;5413055;26;20000;-68
2024/04/09 04:38:14;;;;;;;18.52;4.10;;;;;;;12.93;87.11;95841.34;5403178;26;20017;-66
2024/04/09 04:40:40;;;;;;;19.55;3.83;;;;;;;12.54;88.90;95827.84;5412374;26;20004;-66
2024/04/09 04:43:05;;;;;;;17.48;4.55;;;;;;;12.43;92.02;95817.69;5359897;26;19996;-66
2024/04/09 04:45:31;;;;;;;13.43;3.63;;;;;;;12.55;94.09;95815.66;5401843;26;20368;-68
2024/04/09 04:47:59;;;;;;;21.23;3.83;;;;;;;12.66;92.67;95826.59;5427707;26;20052;-66
2024/04/09 04:50:24;;;;;;;23.95;3.97;;;;;;;12.76;90.95;95842.22;5412283;26;20466;-67
2024/04/09 04:52:50;;;;;;;16.45;3.25;;;;;;;12.57;91.75;95844.31;5395670;26;20094;-66
2024/04/09 04:55:15;;;;;;;13.73;3.40;;;;;;;12.44;92.91;95843.19;5412897;26;20000;-67
2024/04/09 04:57:41;;;;;;;16.83;5.25;;;;;;;12.18;94.85;95858.19;5397313;26;20006;-68
2024/04/09 05:00:11;;;;;;;13.68;3.53;;;;;;;11.84;100.00;95853.94;5408639;26;19999;-66
2024/04/09 05:02:37;;;;;;;15.40;3.65;;;;;;;11.65;100.00;95846.16;5435802;26;20014;-67
2024/04/09 05:05:04;;;;;;;16.88;3.80;;;;;;;11.42;100.00;95854.81;5416977;26;20089;-67
2024/04/09 05:07:30;;;;;;;14.25;3.30;;;;;;;11.48;99.17;95856.72;5435937;26;19999;-66
2024/04/09 05:09:55;;;;;;;27.15;5.00;;;;;;;11.61;100.00;95848.91;5435155;26;19995;-68
2024/04/09 05:12:21;;;;;;;18.75;4.22;;;;;;;11.64;100.00;95861.03;5424126;26;20645;-68
2024/04/09 05:14:47;;;;;;;20.63;4.03;;;;;;;11.79;100.00;95861.78;5431192;26;19999;-66
2024/04/09 05:17:13;;;;;;;28.27;5.45;;;;;;;11.96;100.00;95860.22;5412226;26;19999;-67
2024/04/09 05:19:39;;;;;;;21.92;4.70;;;;;;;12.05;100.00;95866.84;5428203;26;20007;-67
2024/04/09 05:22:04;;;;;;;19.10;4.38;;;;;;;12.15;100.00;95872.72;5391611;26;20014;-67
2024/04/09 05:24:31;;;;;;;21.52;3.67;;;;;;;12.27;100.00;95874.25;5430885;26;19995;-69
2024/04/09 05:26:56;;;;;;;17.10;3.30;;;;;;;12.41;100.00;95871.47;5415835;26;20635;-66
2024/04/09 05:29:22;;;;;;;24.95;4.07;;;;;;;12.38;100.00;95875.00;5420911;26;20288;-66
2024/04/09 05:31:48;;;;;;;18.33;4.20;;;;;;;12.26;100.00;95886.41;5354205;26;20254;-67
2024/04/09 05:34:13;;;;;;;15.65;3.65;;;;;;;12.32;100.00;95899.34;5425992;26;19995;-67
2024/04/09 05:36:39;;;;;;;28.23;5.25;;;;;;;12.56;100.00;95907.88;5412987;26;20007;-66
2024/04/09 05:39:04;;;;;;;25.35;4.43;;;;;;;12.72;97.96;95910.94;5387514;26;20010;-67
2024/04/09 05:41:30;;;;;;;28.27;6.18;;;;;;;12.80;96.70;95914.44;5409483;26;19999;-67
2024/04/09 05:43:55;;;;;;;23.70;4.53;;;;;;;13.09;96.41;95919.78;5364683;26;19999;-66
2024/04/09 05:46:21;;;;;;;27.00;4.40;;;;;;;13.18;93.86;95926.41;5387663;26;20924;-66
2024/04/09 05:48:47;;;;;;;28.88;4.95;;;;;;;13.27;91.13;95942.47;5415005;26;19995;-67
2024/04/09 05:51:13;;;;;;;25.42;4.15;;;;;;;13.14;94.64;95938.59;5404201;26;20452;-69
2024/04/09 05:53:38;;;;;;;24.02;3.95;;;;;;;13.09;97.94;95937.06;5414377;26;19999;-66
2024/04/09 05:56:04;;;;;;;24.73;4.38;;;;;;;13.11;100.00;95937.44;5404213;26;19999;-65
2024/04/09 05:58:29;;;;;;;20.00;4.18;;;;;;;13.44;100.00;95931.75;5430050;26;20010;-66
2024/04/09 06:00:56;;;;;;;18.77;4.00;;;;;;;13.68;100.00;95939.03;5422146;26;19994;-66
2024/04/09 06:03:22;;;;;;;21.58;4.20;;;;;;;13.83;99.09;95942.47;5386986;26;20427;-66
2024/04/09 06:05:51;;;;;;;17.08;4.22;;;;;;;13.99;96.39;95946.63;5432779;26;20003;-66
2024/04/09 06:08:17;;;;;;;21.45;4.38;;;;;;;14.33;95.16;95958.50;5411053;26;19999;-67
2024/04/09 06:10:44;;;;;;;21.75;3.97;;;;;;;14.51;90.49;95963.03;5436531;26;20031;-67
2024/04/09 06:13:10;;;;;;;32.55;4.65;;;;;;;14.74;91.68;95972.66;5414604;26;19998;-67
2024/04/09 06:15:35;;;;;;;15.32;3.95;;;;;;;15.08;91.94;95975.41;5407216;26;19999;-66
2024/04/09 06:18:01;;;;;;;15.23;3.70;;;;;;;15.66;88.64;95967.88;5420724;26;19999;-67
2024/04/09 06:20:26;;;;;;;18.80;3.92;;;;;;;16.24;83.46;95964.19;5411923;26;20000;-67
2024/04/09 06:22:52;;;;;;;30.23;5.30;;;;;;;16.58;79.95;95971.47;5428067;26;20014;-66
2024/04/09 06:25:17;;;;;;;16.38;4.00;;;;;;;16.78;79.35;95977.81;5420152;26;20467;-67
2024/04/09 06:27:43;;;;;;;30.80;4.47;;;;;;;16.73;80.52;95980.28;5415998;26;19995;-66
2024/04/09 06:30:09;;;;;;;22.77;3.85;;;;;;;16.90;80.19;95979.19;5415890;26;20009;-66
2024/04/09 06:32:34;;;;;;;17.95;3.97;;;;;;;17.63;75.01;95973.69;5439932;26;19999;-65
2024/04/09 06:35:00;;;;;;;25.10;4.40;;;;;;;18.14;70.62;95979.59;5426145;26;20494;-66
2024/04/09 06:37:25;;;;;;;15.98;3.17;;;;;;;17.15;70.77;95989.72;5416131;26;19999;-65
2024/04/09 06:39:51;;;;;;;32.17;4.63;;;;;;;17.45;69.82;95987.91;5413896;26;20107;-67
2024/04/09 06:42:16;;;;;;;23.90;4.38;;;;;;;17.76;68.64;95993.16;5390901;26;20746;-65
2024/04/09 06:44:41;;;;;;;27.15;3.88;;;;;;;18.53;64.42;96005.53;5414733;26;19999;-66
2024/04/09 06:47:07;;;;;;;20.23;4.10;;;;;;;18.66;63.74;96008.38;5401967;26;20450;-68
2024/04/09 06:49:32;;;;;;;24.20;3.53;;;;;;;19.08;62.32;96005.66;5408667;26;20354;-67
2024/04/09 06:51:57;;;;;;;21.02;3.88;;;;;;;19.20;61.48;96018.03;5398837;26;20000;-66
2024/04/09 06:54:23;;;;;;;22.88;3.88;;;;;;;19.11;61.38;96031.78;5371732;26;20705;-67
2024/04/09 06:56:48;;;;;;;14.00;3.08;;;;;;;18.84;62.75;96038.44;5428501;26;20004;-68
2024/04/09 06:59:14;;;;;;;29.10;3.92;;;;;;;18.30;64.33;96039.78;5390489;26;20008;-67
2024/04/09 07:01:39;;;;;;;24.27;4.47;;;;;;;18.31;66.95;96049.66;5430924;26;20516;-67
2024/04/09 07:04:04;;;;;;;22.77;3.60;;;;;;;18.23;68.11;96044.72;5404463;26;20010;-67
2024/04/09 07:06:30;;;;;;;28.50;3.63;;;;;;;18.08;69.30;96049.84;5429402;26;19999;-67
2024/04/09 07:09:00;;;;;;;28.42;4.40;;;;;;;17.47;73.18;96040.09;5396495;26;19999;-67
2024/04/09 07:11:26;;;;;;;;;;;;;;;17.63;74.28;96042.91;5392320;26;19996;-68
2024/04/09 07:13:51;;;;;;;34.78;4.53;;;;;;;17.71;75.39;96046.28;5456566;26;19999;-66
2024/04/09 07:16:16;;;;;;;23.13;4.07;;;;;;;17.73;76.26;96041.88;5437933;26;19999;-65
2024/04/09 07:18:42;;;;;;;25.92;3.47;;;;;;;17.50;78.59;96053.06;5425571;26;19995;-66
2024/04/09 07:21:08;;;;;;;28.17;4.40;;;;;;;17.56;80.11;96045.81;5445652;26;19995;-69
2024/04/09 07:23:33;;;;;;;23.77;3.40;;;;;;;18.17;78.46;96066.66;5445364;26;19995;-66
2024/04/09 07:25:59;;;;;;;23.02;4.03;;;;;;;19.18;73.91;96075.22;5430974;26;20012;-67
2024/04/09 07:28:24;;;;;;;21.77;3.47;;;;;;;19.21;74.55;96077.88;5388617;26;20014;-67
2024/04/09 07:30:50;;;;;;;21.10;3.60;;;;;;;19.41;71.83;96094.38;5414741;26;20004;-67
2024/04/09 07:33:16;;;;;;;22.50;3.13;;;;;;;18.95;74.72;96109.53;5392874;26;20759;-66
2024/04/09 07:35:41;;;;;;;16.98;3.83;;;;;;;18.94;76.67;96119.06;5429293;26;20031;-68
2024/04/09 07:38:07;;;;;;;26.60;3.22;;;;;;;18.88;76.04;96107.69;5418023;26;20015;-68
2024/04/09 07:40:32;;;;;;;29.48;3.75;;;;;;;18.31;80.87;96113.44;5416153;26;20121;-67
2024/04/09 07:42:58;;;;;;;24.25;3.70;;;;;;;18.04;85.40;96110.88;5418944;26;20076;-66
2024/04/09 07:45:23;;;;;;;23.70;3.50;;;;;;;18.55;85.17;96129.91;5427562;26;20416;-67
2024/04/09 07:47:51;;;;;;;23.67;4.03;;;;;;;18.75;84.60;96117.94;5400267;26;19995;-68
2024/04/09 07:50:16;;;;;;;16.42;2.92;;;;;;;18.88;84.18;96147.31;5368005;26;19999;-66
2024/04/09 07:52:42;;;;;;;20.60;2.85;;;;;;;18.59;87.42;96144.44;5411586;26;20063;-67
2024/04/09 07:55:08;;;;;;;20.55;3.03;;;;;;;18.37;89.40;96152.50;5391548;26;19999;-67
2024/04/09 07:57:36;;;;;;;21.38;3.75;;;;;;;17.70;92.37;96150.75;5419103;26;20718;-67
2024/04/09 08:00:03;;;;;;;18.92;3.03;;;;;;;16.93;95.54;96155.34;5425199;26;20003;-67
2024/04/09 08:02:29;;;;;;;10.63;2.03;;;;;;;16.65;95.89;96161.34;5419232;26;20003;-66
2024/04/09 08:04:54;;;;;;;9.65;1.70;;;;;;;17.10;92.40;96175.59;5372133;26;19994;-68
2024/04/09 08:07:20;;;;;;;10.15;1.50;;;;;;;17.27;88.58;96184.00;5424113;26;20340;-65
2024/04/09 08:09:45;;;;;;;8.30;1.00;;;;;;;17.28;86.65;96199.41;5416560;26;19995;-66
2024/04/09 08:12:10;;;;;;;8.68;0.93;;;;;;;17.00;87.97;96213.31;5408965;26;20010;-68
2024/04/09 08:14:36;;;;;;;4.07;0.50;;;;;;;16.74;89.12;96231.47;5416876;26;20023;-67
2024/04/09 08:17:01;;;;;;;4.10;0.80;;;;;;;16.43;90.38;96225.25;5392407;26;20000;-66
2024/04/09 08:19:28;;;;;;;2.70;0.70;;;;;;;15.92;93.99;96236.16;5391309;26;19999;-66
2024/04/09 08:21:54;;;;;;;7.38;1.25;;;;;;;15.92;95.26;96241.69;5424027;26;19995;-66
2024/04/09 08:24:20;;;;;;;3.67;0.60;;;;;;;16.24;91.23;96238.53;5415998;26;20460;-66
2024/04/09 08:26:45;;;;;;;4.45;0.60;;;;;;;15.83;94.24;96246.94;5397764;26;19999;-66
2024/04/09 08:29:16;;;;;;;7.15;0.50;;;;;;;15.56;95.18;96257.84;5406456;26;20014;-66
2024/04/09 08:31:44;;;;;;;6.03;0.50;;;;;;;14.89;98.41;96258.03;5410315;26;20076;-67
2024/04/09 08:34:13;;;;;;;4.60;0.50;;;;;;;14.81;99.87;96267.56;5397549;26;20010;-66
2024/04/09 08:36:38;;;;;;;2.20;0.50;;;;;;;14.70;99.66;96279.44;5431159;26;20003;-66
2024/04/09 08:39:04;;;;;;;4.28;0.65;;;;;;;14.58;98.74;96271.63;5423852;26;20728;-66
2024/04/09 08:41:30;;;;;;;1.52;0.40;;;;;;;14.54;99.29;96285.41;5431033;26;19998;-66
2024/04/09 08:43:58;;;;;;;3.80;0.52;;;;;;;14.83;98.98;96299.03;5411147;26;19999;-68
2024/04/09 08:46:24;;;;;;;3.15;0.45;;;;;;;15.13;95.20;96305.16;5403972;26;20092;-66
2024/04/09 08:48:50;;;;;;;4.18;0.52;;;;;;;15.47;93.51;96314.31;5413462;26;20080;-66
2024/04/09 08:51:16;;;;;;;2.88;0.43;;;;;;;15.73;89.72;96316.81;5421320;26;20002;-66
2024/04/09 08:53:45;;;;;;;7.20;0.65;;;;;;;15.39;89.19;96323.81;5430609;26;20337;-66
2024/04/09 08:56:10;;;;;;;3.88;0.55;;;;;;;15.73;88.15;96319.59;5409358;26;20009;-67
2024/04/09 08:58:36;;;;;;;4.93;0.52;;;;;;;15.59;87.93;96329.59;5437491;26;19995;-66
2024/04/09 09:01:02;;;;;;;4.13;0.30;;;;;;;15.44;88.50;96326.16;5416732;26;20000;-65
2024/04/09 09:03:27;;;;;;;0.93;0.30;;;;;;;15.47;90.82;96333.63;5402185;26;19995;-66
2024/04/09 09:06:11;;;;;;;0.20;0.20;;;;;;;14.82;91.17;96335.28;5429889;26;20938;-65
2024/04/09 09:08:43;;;;;;;1.13;0.38;;;;;;;14.62;95.02;96343.25;5415380;26;19998;-66
2024/04/09 09:11:09;;;;;;;3.58;0.30;;;;;;;14.17;96.68;96345.78;5413313;26;20003;-67
2024/04/09 09:13:34;;;;;;;1.20;0.30;;;;;;;14.08;97.88;96351.72;5399652;26;20006;-67
2024/04/09 09:16:00;;;;;;;3.60;0.40;;;;;;;14.24;95.84;96346.56;5396572;26;20011;-66
2024/04/09 09:18:25;;;;;;;6.43;0.80;;;;;;;14.67;94.03;96351.13;5358103;26;19996;-65
2024/04/09 09:21:01;;;;;;;1.17;0.40;;;;;;;14.66;93.51;96363.34;5428063;26;20044;-65
2024/04/09 09:23:26;;;;;;;2.88;0.30;;;;;;;14.06;95.30;96367.84;5422703;26;20430;-65
2024/04/09 09:25:52;;;;;;;1.50;0.55;;;;;;;13.79;97.63;96382.06;5429008;26;20039;-66
2024/04/09 09:28:22;;;;;;;1.05;0.60;;;;;;;13.60;98.52;96377.78;5391225;26;19996;-66
2024/04/09 09:30:48;;;;;;;1.73;0.40;;;;;;;13.31;99.05;96388.78;5414897;26;20110;-67
2024/04/09 09:33:22;;;;;;;3.83;0.45;;;;;;;13.44;99.36;96404.91;5412683;26;20129;-66
2024/04/09 09:35:51;;;;;;;3.50;0.43;;;;;;;13.23;100.00;96411.13;5412537;26;20003;-66
2024/04/09 09:38:17;;;;;;;4.50;0.60;;;;;;;13.06;99.04;96418.19;5420385;26;20014;-67
2024/04/09 09:40:51;;;;;;;0.75;0.40;;;;;;;13.23;99.41;96435.88;5384125;26;20041;-66
2024/04/09 09:43:18;;;;;;;3.72;0.40;;;;;;;12.93;100.00;96448.78;5418024;26;20012;-65
2024/04/09 09:45:44;;;;;;;1.83;0.43;;;;;;;12.37;100.00;96444.59;5417503;26;20011;-67
2024/04/09 09:48:15;;;;;;;0.93;0.30;;;;;;;12.27;100.00;96456.34;5361227;26;20003;-67
2024/04/09 09:50:42;;;;;;;1.77;0.43;;;;;;;12.04;100.00;96471.09;5429405;26;19999;-66
2024/04/09 09:53:08;;;;;;;10.45;0.98;;;;;;;11.83;100.00;96477.19;5393132;26;20319;-67
2024/04/09 09:55:35;;;;;;;3.28;0.60;;;;;;;11.75;100.00;96483.78;5399636;26;20026;-66
2024/04/09 09:58:03;;;;;;;1.60;0.35;;;;;;;11.63;100.00;96471.13;5412183;26;20011;-64
2024/04/09 10:00:30;;;;;;;2.45;0.30;;;;;;;11.43;100.00;96476.84;5427419;26;20052;-66
2024/04/09 10:02:56;;;;;;;5.05;0.30;;;;;;;11.17;100.00;96490.69;5408529;26;20017;-66
2024/04/09 10:05:22;;;;;;;1.65;0.57;;;;;;;11.32;100.00;96484.19;5405721;26;19996;-66
2024/04/09 10:07:48;;;;;;;2.90;0.68;;;;;;;11.05;100.00;96506.22;5430776;26;20020;-67
2024/04/09 10:10:25;;;;;;;3.15;1.63;;;;;;;11.06;100.00;96501.53;5400011;26;20000;-66
2024/04/09 10:12:53;;;;;;;2.70;0.57;;;;;;;10.82;100.00;96505.53;5392099;26;20118;-66
2024/04/09 10:15:25;;;;;;;6.97;0.52;;;;;;;10.54;100.00;96527.91;5433006;26;19999;-66
2024/04/09 10:18:05;;;;;;;0.93;0.45;;;;;;;10.67;100.00;96542.94;5420669;26;20014;-67
2024/04/09 10:20:35;;;;;;;1.00;0.50;;;;;;;10.58;100.00;96548.69;5413414;26;20031;-66
2024/04/09 10:23:03;;;;;;;2.25;0.40;;;;;;;10.62;100.00;96535.03;5384738;26;20000;-65
2024/04/09 10:25:36;;;;;;;1.48;0.30;;;;;;;10.46;100.00;96557.09;5365235;26;20013;-66
2024/04/09 10:28:15;;;;;;;1.50;0.45;;;;;;;10.40;100.00;96577.75;5417972;26;20017;-65
2024/04/09 10:30:46;;;;;;;0.30;0.30;;;;;;;10.40;100.00;96583.22;5404063;26;20077;-66
2024/04/09 10:33:11;;;;;;;5.57;0.50;;;;;;;10.35;100.00;96567.13;5426384;26;20003;-71
2024/04/09 10:35:41;;;;;;;4.85;0.40;;;;;;;10.26;100.00;96581.03;5419263;26;19998;-65
2024/04/09 10:38:07;;;;;;;;;;;;;;;10.17;100.00;96592.22;5392864;26;20000;-65
2024/04/09 10:40:36;;;;;;;6.32;0.60;;;;;;;10.01;100.00;96606.06;5414923;26;19924;-67
2024/04/09 10:43:05;;;;;;;1.80;0.50;;;;;;;10.14;100.00;96593.75;5398726;26;20445;-65
2024/04/09 10:45:31;;;;;;;2.83;0.50;;;;;;;10.00;100.00;96609.94;5390757;26;20735;-67
2024/04/09 10:47:59;;;;;;;4.50;1.60;;;;;;;9.89;100.00;96607.03;5414333;26;20014;-67
2024/04/09 10:50:25;;;;;;;1.80;0.30;;;;;;;9.94;100.00;96609.47;5352947;26;20006;-66
2024/04/09 10:52:50;;;;;;;10.07;1.05;;;;;;;9.88;100.00;96594.47;5412355;26;20429;-67
2024/04/09 10:55:16;;;;;;;4.00;0.47;;;;;;;9.98;100.00;96612.25;5381791;26;20682;-66
2024/04/09 10:57:44;;;;;;;4.63;0.50;;;;;;;9.77;100.00;96591.56;5435314;26;20425;-67
2024/04/09 11:00:11;;;;;;;2.72;0.40;;;;;;;9.95;100.00;96610.25;5404854;26;20000;-67
2024/04/09 11:02:38;;;;;;;3.92;0.82;;;;;;;9.84;100.00;96609.28;5398320;26;20081;-66
2024/04/09 11:05:05;;;;;;;2.83;0.32;;;;;;;9.75;100.00;96612.25;5385563;26;20665;-65
2024/04/09 11:07:39;;;;;;;1.38;0.47;;;;;;;9.53;100.00;96619.25;5434030;26;20449;-66
2024/04/09 11:10:06;;;;;;;3.42;0.60;;;;;;;9.61;100.00;96637.38;5374534;26;20003;-66
2024/04/09 11:12:32;;;;;;;2.47;0.40;;;;;;;9.71;100.00;96645.00;5366063;26;20000;-66
2024/04/09 11:15:01;;;;;;;3.28;0.40;;;;;;;9.57;100.00;96653.72;5402690;26;20026;-66
2024/04/09 11:17:27;;;;;;;1.73;0.50;;;;;;;9.56;100.00;96663.06;5417660;26;20006;-67
2024/04/09 11:20:09;;;;;;;3.47;0.45;;;;;;;9.45;100.00;96669.47;5427213;26;20007;-65
2024/04/09 11:22:42;;;;;;;3.95;0.35;;;;;;;9.53;100.00;96677.47;5408049;26;20017;-66
2024/04/09 11:25:14;;;;;;;10.35;4.30;;;;;;;9.64;100.00;96690.56;5375333;26;20054;-66